createdAt,value
2017-08-14T00:00:52.872Z,1004.15
2017-08-14T00:01:52.872Z,1004.15
2017-08-14T00:02:53.502Z,1004.13
2017-08-14T00:03:52.842Z,1004.08
2017-08-14T00:04:52.794Z,1004.08
2017-08-14T00:05:52.821Z,1004.14
2017-08-14T00:06:52.859Z,1004.09
2017-08-14T00:07:52.840Z,1004.14
2017-08-14T00:08:53.491Z,1004.19
2017-08-14T00:09:52.832Z,1004.19
2017-08-14T00:10:52.814Z,1004.21
2017-08-14T00:11:52.921Z,1004.12
2017-08-14T00:12:52.859Z,1004.12
2017-08-14T00:13:52.826Z,1004.04
2017-08-14T00:14:52.818Z,1004.20
2017-08-14T00:15:52.811Z,1004.20
2017-08-14T00:16:53.526Z,1004.19
2017-08-14T00:17:52.789Z,1004.19
2017-08-14T00:18:53.511Z,1004.09
2017-08-14T00:19:52.764Z,1004.19
2017-08-14T00:20:52.852Z,1004.10
2017-08-14T00:21:52.817Z,1004.22
2017-08-14T00:22:52.794Z,1003.99
2017-08-14T00:23:54.514Z,1004.10
2017-08-14T00:24:52.826Z,1004.16
2017-08-14T00:25:52.803Z,1004.16
2017-08-14T00:26:52.823Z,1004.10
2017-08-14T00:27:52.924Z,1004.06
2017-08-14T00:28:52.770Z,1004.02
2017-08-14T00:29:52.850Z,1004.14
2017-08-14T00:30:52.830Z,1004.18
2017-08-14T00:31:52.884Z,1004.15
2017-08-14T00:32:53.557Z,1004.10
2017-08-14T00:33:52.793Z,1004.03
2017-08-14T00:34:54.537Z,1004.04
2017-08-14T00:35:52.791Z,1004.06
2017-08-14T00:36:52.902Z,1004.03
2017-08-14T00:37:53.633Z,1004.00
2017-08-14T00:38:53.535Z,1004.03
2017-08-14T00:39:52.753Z,1004.01
2017-08-14T00:40:52.814Z,1004.02
2017-08-14T00:41:52.808Z,1004.04
2017-08-14T00:42:52.808Z,1004.07
2017-08-14T00:43:52.799Z,1004.04
2017-08-14T00:44:52.802Z,1003.94
2017-08-14T00:45:52.884Z,1003.98
2017-08-14T00:46:52.825Z,1004.03
2017-08-14T00:47:52.809Z,1003.97
2017-08-14T00:48:53.719Z,1003.91
2017-08-14T00:49:52.829Z,1004.04
2017-08-14T00:50:54.563Z,1004.10
2017-08-14T00:51:52.769Z,1003.92
2017-08-14T00:52:53.246Z,1004.00
2017-08-14T00:53:52.733Z,1003.99
2017-08-14T00:54:52.875Z,1004.08
2017-08-14T00:55:52.809Z,1004.02
2017-08-14T00:56:52.782Z,1003.95
2017-08-14T00:57:52.852Z,1003.92
2017-08-14T00:58:52.892Z,1003.92
2017-08-14T00:59:53.568Z,1003.90
2017-08-14T01:00:52.799Z,1003.98
2017-08-14T01:01:52.805Z,1003.93
2017-08-14T01:02:52.842Z,1004.02
2017-08-14T01:03:52.825Z,1003.95
2017-08-14T01:04:52.753Z,1003.96
2017-08-14T01:05:52.769Z,1003.94
2017-08-14T01:06:53.579Z,1003.98
2017-08-14T01:07:52.876Z,1003.92
2017-08-14T01:08:52.798Z,1004.01
2017-08-14T01:09:52.792Z,1004.02
2017-08-14T01:10:52.762Z,1003.91
2017-08-14T01:11:52.760Z,1003.99
2017-08-14T01:12:52.830Z,1003.82
2017-08-14T01:13:52.822Z,1003.96
2017-08-14T01:14:52.769Z,1003.95
2017-08-14T01:15:52.845Z,1003.86
2017-08-14T01:16:53.613Z,1003.90
2017-08-14T01:17:52.816Z,1003.95
2017-08-14T01:18:52.824Z,1004.01
2017-08-14T01:19:54.095Z,1004.00
2017-08-14T01:20:52.837Z,1004.01
2017-08-14T01:21:52.789Z,1003.98
2017-08-14T01:22:52.873Z,1003.83
2017-08-14T01:23:52.779Z,1003.95
2017-08-14T01:24:52.797Z,1003.98
2017-08-14T01:25:52.737Z,1003.86
2017-08-14T01:26:52.752Z,1003.90
2017-08-14T01:27:53.649Z,1003.86
2017-08-14T01:28:53.799Z,1003.92
2017-08-14T01:29:53.607Z,1003.86
2017-08-14T01:30:53.612Z,1003.96
2017-08-14T01:31:52.801Z,1003.87
2017-08-14T01:32:52.778Z,1003.99
2017-08-14T01:33:52.865Z,1003.86
2017-08-14T01:34:53.626Z,1003.95
2017-08-14T01:35:53.626Z,1003.92
2017-08-14T01:36:52.768Z,1003.94
2017-08-14T01:37:52.852Z,1003.84
2017-08-14T01:38:52.846Z,1004.01
2017-08-14T01:39:54.622Z,1003.87
2017-08-14T01:40:52.776Z,1003.89
2017-08-14T01:42:04.822Z,1004.00
2017-08-14T01:42:52.806Z,1003.88
2017-08-14T01:43:52.800Z,1003.96
2017-08-14T01:44:54.628Z,1003.85
2017-08-14T01:45:52.775Z,1003.89
2017-08-14T01:46:52.743Z,1003.84
2017-08-14T01:47:53.656Z,1003.83
2017-08-14T01:48:52.820Z,1003.77
2017-08-14T01:49:52.816Z,1003.88
2017-08-14T01:50:52.804Z,1003.84
2017-08-14T01:51:52.802Z,1003.76
2017-08-14T01:52:52.731Z,1003.84
2017-08-14T01:53:52.758Z,1003.95
2017-08-14T01:54:52.766Z,1003.88
2017-08-14T01:55:52.747Z,1003.87
2017-08-14T01:56:52.787Z,1003.70
2017-08-14T01:57:52.873Z,1003.74
2017-08-14T01:58:52.811Z,1003.80
2017-08-14T01:59:53.676Z,1003.71
2017-08-14T02:00:52.749Z,1003.86
2017-08-14T02:01:52.772Z,1003.80
2017-08-14T02:02:52.785Z,1003.86
2017-08-14T02:03:54.655Z,1003.80
2017-08-14T02:04:52.729Z,1003.76
2017-08-14T02:05:53.683Z,1003.84
2017-08-14T02:06:53.297Z,1003.71
2017-08-14T02:07:52.762Z,1003.85
2017-08-14T02:08:52.788Z,1003.78
2017-08-14T02:09:52.789Z,1003.75
2017-08-14T02:10:52.858Z,1003.73
2017-08-14T02:11:52.779Z,1003.71
2017-08-14T02:12:52.736Z,1003.70
2017-08-14T02:13:52.767Z,1003.70
2017-08-14T02:14:53.674Z,1003.72
2017-08-14T02:15:52.744Z,1003.85
2017-08-14T02:16:52.786Z,1003.82
2017-08-14T02:17:53.677Z,1003.70
2017-08-14T02:18:52.769Z,1003.75
2017-08-14T02:19:52.860Z,1003.63
2017-08-14T02:20:54.182Z,1003.66
2017-08-14T02:21:52.875Z,1003.60
2017-08-14T02:22:53.686Z,1003.71
2017-08-14T02:23:53.724Z,1003.68
2017-08-14T02:24:52.820Z,1003.77
2017-08-14T02:25:52.749Z,1003.67
2017-08-14T02:26:52.805Z,1003.63
2017-08-14T02:27:53.190Z,1003.71
2017-08-14T02:28:52.778Z,1003.71
2017-08-14T02:29:52.792Z,1003.79
2017-08-14T02:30:52.815Z,1003.73
2017-08-14T02:31:52.753Z,1003.75
2017-08-14T02:32:52.710Z,1003.69
2017-08-14T02:33:53.199Z,1003.66
2017-08-14T02:34:52.936Z,1003.77
2017-08-14T02:35:53.210Z,1003.70
2017-08-14T02:36:53.204Z,1003.73
2017-08-14T02:37:52.810Z,1003.76
2017-08-14T02:38:52.841Z,1003.73
2017-08-14T02:39:52.824Z,1003.69
2017-08-14T02:40:52.728Z,1003.67
2017-08-14T02:41:52.754Z,1003.64
2017-08-14T02:42:52.807Z,1003.62
2017-08-14T02:43:52.793Z,1003.57
2017-08-14T02:44:52.798Z,1003.65
2017-08-14T02:45:53.722Z,1003.58
2017-08-14T02:46:53.222Z,1003.64
2017-08-14T02:47:52.733Z,1003.69
2017-08-14T02:48:52.800Z,1003.62
2017-08-14T02:49:53.359Z,1003.57
2017-08-14T02:50:52.887Z,1003.27
2017-08-14T02:51:53.337Z,1003.52
2017-08-14T02:52:52.747Z,1003.69
2017-08-14T02:53:53.230Z,1003.49
2017-08-14T02:54:52.786Z,1003.73
2017-08-14T02:55:53.234Z,1003.41
2017-08-14T02:56:53.235Z,1003.61
2017-08-14T02:57:52.763Z,1003.45
2017-08-14T02:58:52.800Z,1003.48
2017-08-14T02:59:52.743Z,1003.46
2017-08-14T03:00:53.370Z,1003.49
2017-08-14T03:01:53.265Z,1003.50
2017-08-14T03:02:53.250Z,1003.60
2017-08-14T03:03:52.711Z,1003.62
2017-08-14T03:04:52.767Z,1003.66
2017-08-14T03:05:52.798Z,1003.63
2017-08-14T03:06:52.794Z,1003.68
2017-08-14T03:07:52.793Z,1003.70
2017-08-14T03:08:52.829Z,1003.54
2017-08-14T03:09:52.774Z,1003.61
2017-08-14T03:10:52.782Z,1003.55
2017-08-14T03:11:52.791Z,1003.64
2017-08-14T03:12:52.846Z,1003.66
2017-08-14T03:13:53.265Z,1003.76
2017-08-14T03:14:52.780Z,1003.74
2017-08-14T03:15:52.739Z,1003.67
2017-08-14T03:16:52.759Z,1003.57
2017-08-14T03:17:52.705Z,1003.58
2017-08-14T03:18:52.820Z,1003.79
2017-08-14T03:19:52.743Z,1003.77
2017-08-14T03:20:52.755Z,1003.78
2017-08-14T03:21:52.759Z,1003.73
2017-08-14T03:22:52.763Z,1003.79
2017-08-14T03:23:52.756Z,1003.74
2017-08-14T03:24:52.782Z,1003.68
2017-08-14T03:25:52.829Z,1003.70
2017-08-14T03:26:53.468Z,1003.79
2017-08-14T03:27:52.732Z,1003.72
2017-08-14T03:28:53.281Z,1003.68
2017-08-14T03:29:52.753Z,1003.66
2017-08-14T03:30:52.734Z,1003.66
2017-08-14T03:31:52.823Z,1003.61
2017-08-14T03:32:52.800Z,1003.58
2017-08-14T03:33:53.298Z,1003.58
2017-08-14T03:34:52.771Z,1003.57
2017-08-14T03:35:52.734Z,1003.61
2017-08-14T03:36:52.765Z,1003.75
2017-08-14T03:37:52.829Z,1003.59
2017-08-14T03:38:52.754Z,1003.57
2017-08-14T03:39:52.749Z,1003.52
2017-08-14T03:40:52.832Z,1003.50
2017-08-14T03:41:52.736Z,1003.45
2017-08-14T03:42:52.763Z,1003.51
2017-08-14T03:43:53.313Z,1003.39
2017-08-14T03:44:53.307Z,1003.42
2017-08-14T03:45:52.753Z,1005.52
2017-08-14T03:46:52.817Z,1003.44
2017-08-14T03:47:53.328Z,1003.39
2017-08-14T03:48:55.811Z,1003.42
2017-08-14T03:49:52.738Z,1003.52
2017-08-14T03:50:52.729Z,1003.46
2017-08-14T03:51:52.807Z,1003.48
2017-08-14T03:52:53.322Z,1003.52
2017-08-14T03:53:52.787Z,1003.42
2017-08-14T03:54:53.319Z,1003.43
2017-08-14T03:55:52.724Z,1003.55
2017-08-14T03:56:52.781Z,1003.37
2017-08-14T03:57:52.719Z,1003.57
2017-08-14T03:58:53.321Z,1003.56
2017-08-14T03:59:52.783Z,1003.49
2017-08-14T04:00:52.779Z,1003.48
2017-08-14T04:01:52.774Z,1003.60
2017-08-14T04:02:52.775Z,1003.51
2017-08-14T04:03:52.768Z,1003.48
2017-08-14T04:04:52.779Z,1003.61
2017-08-14T04:05:52.784Z,1003.61
2017-08-14T04:06:53.835Z,1003.67
2017-08-14T04:07:52.735Z,1003.76
2017-08-14T04:08:53.336Z,1003.77
2017-08-14T04:09:52.684Z,1003.60
2017-08-14T04:10:52.803Z,1003.58
2017-08-14T04:11:53.468Z,1003.65
2017-08-14T04:12:52.809Z,1003.69
2017-08-14T04:13:52.737Z,1003.58
2017-08-14T04:14:52.721Z,1003.54
2017-08-14T04:15:52.822Z,1003.68
2017-08-14T04:16:52.748Z,1003.69
2017-08-14T04:17:52.855Z,1003.56
2017-08-14T04:18:52.752Z,1003.65
2017-08-14T04:19:53.352Z,1003.71
2017-08-14T04:20:52.707Z,1003.60
2017-08-14T04:21:52.707Z,1003.80
2017-08-14T04:22:53.050Z,1003.91
2017-08-14T04:23:52.717Z,1003.92
2017-08-14T04:24:52.714Z,1003.84
2017-08-14T04:25:52.780Z,1003.81
2017-08-14T04:26:52.810Z,1003.73
2017-08-14T04:27:53.363Z,1003.78
2017-08-14T04:28:52.765Z,1003.72
2017-08-14T04:29:53.513Z,1003.78
2017-08-14T04:30:52.727Z,1003.66
2017-08-14T04:31:52.799Z,1003.60
2017-08-14T04:32:52.784Z,1003.66
2017-08-14T04:33:52.699Z,1003.55
2017-08-14T04:34:52.760Z,1003.53
2017-08-14T04:35:53.387Z,1003.60
2017-08-14T04:36:52.745Z,1003.62
2017-08-14T04:37:53.881Z,1003.77
2017-08-14T04:38:52.699Z,1003.78
2017-08-14T04:39:52.728Z,1003.69
2017-08-14T04:40:52.741Z,1003.82
2017-08-14T04:41:52.778Z,1003.68
2017-08-14T04:42:52.774Z,1003.66
2017-08-14T04:43:52.685Z,1003.67
2017-08-14T04:44:53.392Z,1003.87
2017-08-14T04:45:52.699Z,1003.80
2017-08-14T04:46:52.720Z,1003.72
2017-08-14T04:47:53.398Z,1003.69
2017-08-14T04:48:52.714Z,1003.71
2017-08-14T04:49:53.396Z,1003.56
2017-08-14T04:50:52.779Z,1003.54
2017-08-14T04:51:53.401Z,1003.64
2017-08-14T04:52:52.752Z,1003.81
2017-08-14T04:53:52.738Z,1003.86
2017-08-14T04:54:52.685Z,1003.82
2017-08-14T04:55:52.736Z,1003.82
2017-08-14T04:56:52.722Z,1003.75
2017-08-14T04:57:55.407Z,1003.69
2017-08-14T04:58:52.820Z,1003.75
2017-08-14T04:59:52.757Z,1003.82
2017-08-14T05:00:53.417Z,1003.77
2017-08-14T05:01:52.685Z,1003.73
2017-08-14T05:02:52.707Z,1003.72
2017-08-14T05:03:52.734Z,1003.72
2017-08-14T05:04:52.715Z,1003.74
2017-08-14T05:05:52.776Z,1003.73
2017-08-14T05:06:53.418Z,1003.83
2017-08-14T05:07:52.725Z,1003.73
2017-08-14T05:08:52.767Z,1003.76
2017-08-14T05:09:52.740Z,1003.71
2017-08-14T05:10:52.801Z,1003.66
2017-08-14T05:11:52.726Z,1003.54
2017-08-14T05:12:52.710Z,1003.61
2017-08-14T05:13:53.433Z,1003.64
2017-08-14T05:14:52.714Z,1003.63
2017-08-14T05:15:52.818Z,1003.65
2017-08-14T05:16:52.714Z,1003.76
2017-08-14T05:17:52.740Z,1003.75
2017-08-14T05:18:52.737Z,1003.71
2017-08-14T05:19:52.722Z,1003.76
2017-08-14T05:20:52.708Z,1003.73
2017-08-14T05:21:53.444Z,1003.75
2017-08-14T05:22:52.730Z,1003.83
2017-08-14T05:23:53.111Z,1003.76
2017-08-14T05:24:52.694Z,1003.77
2017-08-14T05:25:52.761Z,1003.78
2017-08-14T05:26:53.644Z,1003.98
2017-08-14T05:27:53.449Z,1003.95
2017-08-14T05:28:53.484Z,1003.90
2017-08-14T05:29:52.679Z,1003.96
2017-08-14T05:30:52.699Z,1003.93
2017-08-14T05:31:54.455Z,1003.95
2017-08-14T05:32:52.665Z,1003.84
2017-08-14T05:33:52.754Z,1003.92
2017-08-14T05:34:52.726Z,1003.82
2017-08-14T05:35:52.700Z,1003.87
2017-08-14T05:36:52.685Z,1003.85
2017-08-14T05:37:52.743Z,1003.96
2017-08-14T05:38:52.775Z,1003.87
2017-08-14T05:39:52.704Z,1003.79
2017-08-14T05:40:52.737Z,1003.72
2017-08-14T05:41:52.774Z,1003.62
2017-08-14T05:42:53.473Z,1003.67
2017-08-14T05:43:52.753Z,1003.72
2017-08-14T05:44:53.479Z,1003.84
2017-08-14T05:45:52.735Z,1003.94
2017-08-14T05:46:52.691Z,1003.84
2017-08-14T05:47:52.673Z,1003.84
2017-08-14T05:48:52.707Z,1003.75
2017-08-14T05:49:53.660Z,1003.73
2017-08-14T05:50:52.743Z,1003.64
2017-08-14T05:51:52.684Z,1003.60
2017-08-14T05:52:52.728Z,1003.61
2017-08-14T05:53:52.715Z,1003.75
2017-08-14T05:54:52.750Z,1003.80
2017-08-14T05:55:52.702Z,1003.84
2017-08-14T05:56:53.497Z,1003.79
2017-08-14T05:57:52.765Z,1003.82
2017-08-14T05:58:52.762Z,1003.71
2017-08-14T05:59:52.786Z,1003.90
2017-08-14T06:00:52.658Z,1004.05
2017-08-14T06:01:53.648Z,1004.01
2017-08-14T06:02:52.699Z,1003.87
2017-08-14T06:03:52.707Z,1003.56
2017-08-14T06:04:53.508Z,1003.65
2017-08-14T06:05:52.799Z,1003.53
2017-08-14T06:06:52.764Z,1003.50
2017-08-14T06:07:52.736Z,1003.68
2017-08-14T06:08:52.696Z,1003.73
2017-08-14T06:09:53.524Z,1003.64
2017-08-14T06:10:52.710Z,1003.80
2017-08-14T06:11:52.692Z,1003.85
2017-08-14T06:12:52.742Z,1003.84
2017-08-14T06:13:52.687Z,1003.68
2017-08-14T06:14:52.688Z,1003.74
2017-08-14T06:15:52.780Z,1003.72
2017-08-14T06:16:53.529Z,1003.69
2017-08-14T06:17:52.721Z,1003.74
2017-08-14T06:18:53.523Z,1003.85
2017-08-14T06:19:52.742Z,1003.82
2017-08-14T06:20:54.527Z,1003.88
2017-08-14T06:21:52.682Z,1003.89
2017-08-14T06:22:53.534Z,1003.93
2017-08-14T06:23:52.739Z,1003.80
2017-08-14T06:24:52.702Z,1003.79
2017-08-14T06:25:52.797Z,1003.74
2017-08-14T06:26:52.726Z,1003.84
2017-08-14T06:27:53.536Z,1003.96
2017-08-14T06:28:52.714Z,1003.89
2017-08-14T06:29:53.706Z,1003.85
2017-08-14T06:30:52.739Z,1003.84
2017-08-14T06:31:52.668Z,1003.85
2017-08-14T06:32:52.723Z,1003.84
2017-08-14T06:33:52.813Z,1003.84
2017-08-14T06:35:05.798Z,1003.87
2017-08-14T06:35:52.720Z,1003.81
2017-08-14T06:36:53.557Z,1003.77
2017-08-14T06:37:52.684Z,1003.73
2017-08-14T06:38:52.684Z,1003.73
2017-08-14T06:39:52.705Z,1003.80
2017-08-14T06:40:53.568Z,1003.81
2017-08-14T06:41:53.558Z,1003.92
2017-08-14T06:42:52.716Z,1003.80
2017-08-14T06:43:53.565Z,1003.85
2017-08-14T06:44:52.690Z,1003.85
2017-08-14T06:45:52.789Z,1003.93
2017-08-14T06:46:52.733Z,1003.87
2017-08-14T06:47:52.719Z,1003.81
2017-08-14T06:48:52.738Z,1003.90
2017-08-14T06:49:53.594Z,1003.80
2017-08-14T06:50:52.783Z,1003.99
2017-08-14T06:51:52.781Z,1003.88
2017-08-14T06:52:52.697Z,1003.71
2017-08-14T06:53:52.697Z,1003.68
2017-08-14T06:54:52.757Z,1003.76
2017-08-14T06:55:52.774Z,1003.76
2017-08-14T06:56:52.717Z,1003.78
2017-08-14T06:57:52.727Z,1003.83
2017-08-14T06:58:53.610Z,1003.75
2017-08-14T06:59:53.587Z,1003.85
2017-08-14T07:00:52.671Z,1003.93
2017-08-14T07:01:53.238Z,1003.88
2017-08-14T07:02:52.743Z,1003.68
2017-08-14T07:03:53.593Z,1003.63
2017-08-14T07:04:53.623Z,1003.66
2017-08-14T07:05:52.695Z,1003.85
2017-08-14T07:06:52.716Z,1003.74
2017-08-14T07:07:53.600Z,1003.80
2017-08-14T07:08:53.622Z,1003.84
2017-08-14T07:09:52.686Z,1003.83
2017-08-14T07:10:54.602Z,1003.72
2017-08-14T07:11:52.781Z,1003.62
2017-08-14T07:12:52.713Z,1003.70
2017-08-14T07:13:53.607Z,1003.68
2017-08-14T07:14:53.609Z,1003.67
2017-08-14T07:15:52.731Z,1003.68
2017-08-14T07:16:52.829Z,1003.80
2017-08-14T07:17:52.732Z,1003.84
2017-08-14T07:18:52.672Z,1003.62
2017-08-14T07:19:53.122Z,1003.63
2017-08-14T07:20:52.804Z,1003.63
2017-08-14T07:21:53.618Z,1003.72
2017-08-14T07:22:52.616Z,1003.77
2017-08-14T07:23:52.685Z,1003.71
2017-08-14T07:24:52.678Z,1003.68
2017-08-14T07:25:53.129Z,1003.74
2017-08-14T07:26:52.734Z,1003.64
2017-08-14T07:27:53.128Z,1003.61
2017-08-14T07:28:53.128Z,1003.60
2017-08-14T07:29:53.635Z,1003.62
2017-08-14T07:30:52.922Z,1003.70
2017-08-14T07:31:53.662Z,1003.59
2017-08-14T07:32:52.753Z,1003.60
2017-08-14T07:33:52.715Z,1003.42
2017-08-14T07:34:52.723Z,1003.40
2017-08-14T07:35:52.686Z,1003.51
2017-08-14T07:36:52.669Z,1003.62
2017-08-14T07:37:53.145Z,1003.62
2017-08-14T07:38:52.810Z,1003.57
2017-08-14T07:39:52.671Z,1003.71
2017-08-14T07:40:52.726Z,1003.65
2017-08-14T07:41:52.646Z,1003.56
2017-08-14T07:42:53.656Z,1003.50
2017-08-14T07:43:53.155Z,1003.64
2017-08-14T07:44:52.659Z,1003.71
2017-08-14T07:45:52.670Z,1003.70
2017-08-14T07:46:52.636Z,1003.61
2017-08-14T07:47:53.379Z,1003.61
2017-08-14T07:48:52.654Z,1003.67
2017-08-14T07:49:52.676Z,1003.64
2017-08-14T07:50:53.168Z,1003.62
2017-08-14T07:51:52.689Z,1003.64
2017-08-14T07:52:52.680Z,1003.57
2017-08-14T07:53:53.689Z,1003.52
2017-08-14T07:54:52.640Z,1003.55
2017-08-14T07:55:53.366Z,1003.56
2017-08-14T07:56:52.703Z,1003.51
2017-08-14T07:57:52.662Z,1003.50
2017-08-14T07:58:52.659Z,1003.58
2017-08-14T07:59:52.673Z,1003.52
2017-08-14T08:00:53.345Z,1003.56
2017-08-14T08:01:52.692Z,1003.59
2017-08-14T08:02:52.847Z,1003.65
2017-08-14T08:03:52.634Z,1003.63
2017-08-14T08:04:52.655Z,1003.59
2017-08-14T08:05:52.674Z,1003.53
2017-08-14T08:06:52.695Z,1003.56
2017-08-14T08:07:52.661Z,1003.63
2017-08-14T08:08:52.665Z,1003.68
2017-08-14T08:09:52.661Z,1003.61
2017-08-14T08:10:52.663Z,1003.70
2017-08-14T08:11:52.670Z,1003.67
2017-08-14T08:12:52.984Z,1003.81
2017-08-14T08:13:53.199Z,1003.75
2017-08-14T08:14:52.660Z,1003.70
2017-08-14T08:15:52.712Z,1003.59
2017-08-14T08:16:52.680Z,1003.59
2017-08-14T08:17:52.614Z,1003.53
2017-08-14T08:18:52.929Z,1003.40
2017-08-14T08:19:52.701Z,1003.24
2017-08-14T08:20:52.702Z,1003.15
2017-08-14T08:21:52.672Z,1002.95
2017-08-14T08:22:52.728Z,1002.94
2017-08-14T08:23:52.768Z,1003.17
2017-08-14T08:24:52.675Z,1003.47
2017-08-14T08:25:55.329Z,1003.62
2017-08-14T08:26:52.694Z,1003.71
2017-08-14T08:27:52.606Z,1003.82
2017-08-14T08:28:52.660Z,1003.85
2017-08-14T08:29:52.740Z,1003.76
2017-08-14T08:30:52.705Z,1003.73
2017-08-14T08:31:52.693Z,1003.73
2017-08-14T08:32:52.643Z,1003.67
2017-08-14T08:33:52.711Z,1003.73
2017-08-14T08:34:53.232Z,1003.61
2017-08-14T08:35:52.652Z,1003.67
2017-08-14T08:36:52.678Z,1003.62
2017-08-14T08:37:52.658Z,1003.54
2017-08-14T08:38:52.671Z,1003.54
2017-08-14T08:39:52.746Z,1003.47
2017-08-14T08:40:52.630Z,1003.53
2017-08-14T08:41:53.243Z,1003.61
2017-08-14T08:42:52.689Z,1003.59
2017-08-14T08:43:52.768Z,1003.51
2017-08-14T08:44:52.641Z,1003.57
2017-08-14T08:45:52.840Z,1003.53
2017-08-14T08:46:53.252Z,1003.50
2017-08-14T08:47:52.674Z,1003.68
2017-08-14T08:48:52.673Z,1003.69
2017-08-14T08:49:52.636Z,1003.56
2017-08-14T08:50:52.688Z,1003.49
2017-08-14T08:51:52.673Z,1003.51
2017-08-14T08:52:53.434Z,1003.59
2017-08-14T08:53:52.709Z,1003.48
2017-08-14T08:54:52.616Z,1003.54
2017-08-14T08:55:53.272Z,1003.51
2017-08-14T08:56:52.630Z,1003.43
2017-08-14T08:57:52.661Z,1003.40
2017-08-14T08:58:52.610Z,1003.34
2017-08-14T08:59:52.680Z,1003.35
2017-08-14T09:00:53.271Z,1003.32
2017-08-14T09:01:52.704Z,1003.53
2017-08-14T09:02:52.595Z,1003.61
2017-08-14T09:03:52.586Z,1003.46
2017-08-14T09:04:52.737Z,1003.69
2017-08-14T09:05:52.623Z,1003.54
2017-08-14T09:06:52.638Z,1003.53
2017-08-14T09:07:53.308Z,1003.47
2017-08-14T09:08:52.661Z,1003.51
2017-08-14T09:09:52.643Z,1003.50
2017-08-14T09:10:52.631Z,1003.46
2017-08-14T09:11:52.633Z,1003.49
2017-08-14T09:12:52.586Z,1003.35
2017-08-14T09:13:52.647Z,1003.37
2017-08-14T09:14:53.797Z,1003.31
2017-08-14T09:15:52.776Z,1003.29
2017-08-14T09:16:53.300Z,1003.43
2017-08-14T09:17:52.644Z,1003.16
2017-08-14T09:18:52.667Z,1003.08
2017-08-14T09:19:53.318Z,1003.01
2017-08-14T09:20:52.631Z,1002.99
2017-08-14T09:21:53.313Z,1003.15
2017-08-14T09:22:52.664Z,1003.26
2017-08-14T09:23:53.317Z,1003.36
2017-08-14T09:24:52.754Z,1003.42
2017-08-14T09:25:52.610Z,1003.54
2017-08-14T09:26:52.609Z,1003.43
2017-08-14T09:27:52.650Z,1003.38
2017-08-14T09:28:52.625Z,1003.45
2017-08-14T09:29:52.674Z,1003.47
2017-08-14T09:30:52.658Z,1003.42
2017-08-14T09:31:52.729Z,1003.40
2017-08-14T09:32:52.636Z,1003.29
2017-08-14T09:33:52.639Z,1003.28
2017-08-14T09:34:52.689Z,1003.31
2017-08-14T09:35:52.665Z,1003.24
2017-08-14T09:36:52.668Z,1003.31
2017-08-14T09:37:52.622Z,1003.22
2017-08-14T09:38:52.678Z,1003.28
2017-08-14T09:39:52.695Z,1003.07
2017-08-14T09:40:52.685Z,1002.81
2017-08-14T09:41:52.720Z,1002.57
2017-08-14T09:42:52.677Z,1002.55
2017-08-14T09:43:52.756Z,1002.51
2017-08-14T09:44:52.608Z,1002.61
2017-08-14T09:45:52.748Z,1002.97
2017-08-14T09:46:52.683Z,1003.44
2017-08-14T09:47:52.597Z,1003.51
2017-08-14T09:48:52.597Z,1003.24
2017-08-14T09:49:52.615Z,1003.23
2017-08-14T09:50:52.753Z,1003.05
2017-08-14T09:51:52.673Z,1003.20
2017-08-14T09:52:52.652Z,1003.10
2017-08-14T09:53:52.597Z,1003.14
2017-08-14T09:54:53.361Z,1003.35
2017-08-14T09:55:52.713Z,1003.41
2017-08-14T09:56:52.631Z,1003.68
2017-08-14T09:57:52.629Z,1003.24
2017-08-14T09:58:52.613Z,1003.11
2017-08-14T09:59:52.619Z,1003.26
2017-08-14T10:00:53.378Z,1003.26
2017-08-14T10:01:52.666Z,1003.26
2017-08-14T10:02:52.610Z,1003.60
2017-08-14T10:03:53.408Z,1003.32
2017-08-14T10:04:53.413Z,1003.21
2017-08-14T10:05:52.684Z,1002.84
2017-08-14T10:06:53.383Z,1002.81
2017-08-14T10:07:52.624Z,1003.17
2017-08-14T10:08:52.689Z,1003.44
2017-08-14T10:09:52.609Z,1003.46
2017-08-14T10:10:52.683Z,1003.40
2017-08-14T10:11:52.641Z,1003.14
2017-08-14T10:12:52.667Z,1003.01
2017-08-14T10:13:53.501Z,1002.98
2017-08-14T10:14:52.633Z,1003.12
2017-08-14T10:15:52.666Z,1003.22
2017-08-14T10:16:52.650Z,1003.33
2017-08-14T10:17:53.410Z,1003.64
2017-08-14T10:18:52.685Z,1003.35
2017-08-14T10:19:53.424Z,1003.33
2017-08-14T10:20:52.657Z,1003.10
2017-08-14T10:21:52.665Z,1003.22
2017-08-14T10:22:52.608Z,1003.25
2017-08-14T10:23:52.634Z,1003.22
2017-08-14T10:24:52.604Z,1002.96
2017-08-14T10:25:52.638Z,1003.09
2017-08-14T10:26:53.104Z,1003.00
2017-08-14T10:27:52.633Z,1003.11
2017-08-14T10:28:52.635Z,1002.87
2017-08-14T10:29:53.455Z,1002.78
2017-08-14T10:30:53.585Z,1002.91
2017-08-14T10:31:53.425Z,1003.13
2017-08-14T10:32:52.635Z,1002.90
2017-08-14T10:33:54.432Z,1003.31
2017-08-14T10:34:52.593Z,1003.08
2017-08-14T10:35:52.627Z,1002.92
2017-08-14T10:36:53.195Z,1002.87
2017-08-14T10:37:53.436Z,1002.87
2017-08-14T10:38:52.616Z,1002.99
2017-08-14T10:39:52.590Z,1003.20
2017-08-14T10:40:52.693Z,1003.33
2017-08-14T10:41:52.611Z,1003.01
2017-08-14T10:42:52.675Z,1002.92
2017-08-14T10:43:52.624Z,1002.76
2017-08-14T10:44:52.596Z,1002.71
2017-08-14T10:45:53.580Z,1002.68
2017-08-14T10:46:52.664Z,1002.73
2017-08-14T10:47:52.590Z,1003.01
2017-08-14T10:48:52.621Z,1002.92
2017-08-14T10:49:52.664Z,1002.62
2017-08-14T10:50:52.615Z,1002.87
2017-08-14T10:51:53.536Z,1003.34
2017-08-14T10:52:52.615Z,1003.37
2017-08-14T10:53:52.602Z,1003.25
2017-08-14T10:54:52.591Z,1003.14
2017-08-14T10:55:52.640Z,1002.99
2017-08-14T10:56:53.483Z,1003.17
2017-08-14T10:57:52.665Z,1003.06
2017-08-14T10:58:52.657Z,1003.05
2017-08-14T10:59:52.662Z,1003.21
2017-08-14T11:00:52.640Z,1002.95
2017-08-14T11:01:52.605Z,1002.97
2017-08-14T11:02:52.678Z,1002.62
2017-08-14T11:03:53.490Z,1002.79
2017-08-14T11:04:52.606Z,1002.92
2017-08-14T11:05:53.484Z,1002.80
2017-08-14T11:06:53.173Z,1002.86
2017-08-14T11:07:52.658Z,1003.15
2017-08-14T11:08:52.625Z,1002.86
2017-08-14T11:09:53.494Z,1002.72
2017-08-14T11:10:52.644Z,1002.82
2017-08-14T11:11:52.638Z,1003.32
2017-08-14T11:12:55.998Z,1003.04
2017-08-14T11:13:53.504Z,1003.08
2017-08-14T11:14:52.642Z,1003.04
2017-08-14T11:15:52.603Z,1003.16
2017-08-14T11:16:53.504Z,1002.98
2017-08-14T11:17:52.635Z,1002.97
2017-08-14T11:18:52.612Z,1003.16
2017-08-14T11:19:54.510Z,1002.84
2017-08-14T11:20:52.600Z,1002.84
2017-08-14T11:21:52.609Z,1002.71
2017-08-14T11:22:52.626Z,1002.57
2017-08-14T11:23:52.624Z,1002.56
2017-08-14T11:24:52.623Z,1002.81
2017-08-14T11:25:52.641Z,1002.82
2017-08-14T11:26:52.642Z,1002.93
2017-08-14T11:27:52.681Z,1002.56
2017-08-14T11:28:53.525Z,1002.64
2017-08-14T11:29:52.631Z,1002.76
2017-08-14T11:30:52.699Z,1002.85
2017-08-14T11:31:52.616Z,1002.66
2017-08-14T11:32:52.659Z,1002.70
2017-08-14T11:33:53.034Z,1002.85
2017-08-14T11:34:52.623Z,1002.90
2017-08-14T11:35:52.657Z,1002.90
2017-08-14T11:36:53.564Z,1002.89
2017-08-14T11:37:53.045Z,1002.96
2017-08-14T11:38:52.667Z,1003.13
2017-08-14T11:39:52.562Z,1002.61
2017-08-14T11:40:52.623Z,1002.60
2017-08-14T11:41:52.729Z,1002.63
2017-08-14T11:42:53.071Z,1002.46
2017-08-14T11:43:52.683Z,1002.43
2017-08-14T11:44:52.589Z,1002.51
2017-08-14T11:45:52.574Z,1002.67
2017-08-14T11:46:53.057Z,1002.61
2017-08-14T11:47:52.587Z,1002.65
2017-08-14T11:48:52.597Z,1002.61
2017-08-14T11:49:52.599Z,1002.61
2017-08-14T11:50:52.619Z,1002.59
2017-08-14T11:51:52.621Z,1002.67
2017-08-14T11:52:52.600Z,1002.48
2017-08-14T11:53:53.339Z,1002.34
2017-08-14T11:54:52.641Z,1002.17
2017-08-14T11:55:52.794Z,1002.28
2017-08-14T11:56:52.654Z,1002.32
2017-08-14T11:57:52.677Z,1002.54
2017-08-14T11:58:52.624Z,1002.13
2017-08-14T11:59:52.668Z,1002.16
2017-08-14T12:00:52.655Z,1002.18
2017-08-14T12:01:52.564Z,1002.23
2017-08-14T12:02:52.574Z,1002.47
2017-08-14T12:03:53.230Z,1002.54
2017-08-14T12:04:53.094Z,1002.77
2017-08-14T12:05:53.093Z,1002.67